KGYR/GYR METAR and TAF weather

Enter ICAO airport designator
Station Type Date Time Source
KGYR METAR 2024/04/15 03:47 UTC NOAA

KGYR 150347Z 24008KT 10SM FEW110 FEW250 20/M04 A2991 RMK LAST


Station Type Date Time Source
KGYR Decoded METAR 2024/04/15 03:47 UTC NOAA

Goodyear Municipal, AZ, United States (KGYR) 33-25N 112-23W
Apr 14, 2024 - 11:47 PM EDT / 2024.04.15 0347 UTC
Wind: from the WSW (240 degrees) at 9 MPH (8 KT):0
Visibility: 10 mile(s):0
Sky conditions: mostly clear
Temperature: 68 F (20 C)
Dew Point: 24 F (-4 C)
Relative Humidity: 19%
Pressure (altimeter): 29.91 in. Hg (1012 hPa)
ob: KGYR 150347Z 24008KT 10SM FEW110 FEW250 20/M04 A2991 RMK LAST
cycle: 4

Station Type Date Time Source
KGYR TAF 2023/02/13 18:24 UTC NOAA